Crafers weather station

 Latitude S 34° 59' 22"    Longitude E 138° 43' 40"    Elevation 500 m

The forecast and data used is specifically for Crafers only so these values only apply to this specific area and may differ from the rest of the Mt Lofty Ranges region. The summary bar hi-lights today's prediction rather than yesterdays value. This has not been applied to other CumulusUtils FWI sites.
Legend:
Low-Mod (0-210)
Severe (490 - 630)

High (210 - 350)
Extreme (630 - 800)

Very High (350 - 490)
Catastrophic (800+)


 
68.47
Date Temp. (°C) Wind Speed (km/h) Rain (mm) RH Days Since Rain pwsFWI
Prediction is active (including today!), values are above red line.
19/04/21 15.00 14.00 0.80 0.78 0 37.41
18/04/21 15.00 11.00 0.00 0.70 2 28.93
17/04/21 14.00 12.00 0.00 0.59 1 46.75
16/04/21 15.00 9.00 1.40 0.74 0 48.30
15/04/21 15.00 15.00 1.60 0.67 0 68.47
14/04/21 18.50 8.60 1.40 0.61 0 67.18
13/04/21 22.00 11.20 7.80 0.27 0 74.43
12/04/21 20.10 9.70 0.00 0.34 2 102.86
11/04/21 15.90 8.60 0.00 0.54 1 102.82
10/04/21 16.70 12.20 0.60 0.66 0 111.13
09/04/21 20.50 8.60 2.00 0.49 0 170.59
08/04/21 30.00 7.20 1.10 0.23 0 221.31
07/04/21 30.00 6.10 0.00 0.21 11 267.13
06/04/21 25.80 7.20 0.00 0.35 10 267.98
05/04/21 24.00 7.20 0.00 0.45 9 278.39
04/04/21 32.50 8.60 0.00 0.23 8 281.43
03/04/21 32.60 5.00 0.00 0.23 7 235.74
02/04/21 32.70 7.20 0.00 0.18 6 215.26
01/04/21 31.00 6.10 0.00 0.22 5 155.97
31/03/21 29.90 7.20 0.00 0.30 4 112.31
30/03/21 26.90 6.10 0.00 0.36 3 78.92
29/03/21 24.60 6.10 0.00 0.47 2 50.31
28/03/21 20.60 8.60 0.00 0.56 1 70.43
27/03/21 19.90 6.10 1.20 0.61 0 83.37
26/03/21 21.60 6.10 1.70 0.55 0 124.32
25/03/21 18.80 6.10 0.00 0.62 1 183.59
24/03/21 20.30 8.60 1.10 0.67 0 230.83
23/03/21 25.30 11.20 0.10 0.43 0 276.79
22/03/21 29.50 5.00 0.00 0.35 6 275.19
21/03/21 29.90 7.20 0.00 0.35 5 261.13
20/03/21 29.00 12.20 0.00 0.33 4 228.00
19/03/21 27.40 12.20 0.00 0.42 3 183.99
18/03/21 27.30 11.20 0.00 0.35 2 131.46
17/03/21 27.90 7.20 0.00 0.38 1 77.75
16/03/21 22.20 6.10 0.10 0.58 0 63.42
15/03/21 18.60 5.00 0.70 0.66 0 49.74
14/03/21 19.90 8.60 0.00 0.44 1 63.25
13/03/21 16.90 9.70 4.90 0.64 0 69.49
12/03/21 30.50 9.70 1.40 0.28 0 125.33
11/03/21 27.50 5.00 0.00 0.45 1 95.90
10/03/21 26.70 6.10 2.90 0.43 0 118.22
09/03/21 23.00 7.20 0.00 0.51 2 135.89
08/03/21 22.80 8.60 0.00 0.52 1 153.32
07/03/21 29.50 6.10 0.60 0.36 0 164.39
06/03/21 28.60 6.10 1.40 0.29 0 178.41
05/03/21 25.70 9.70 0.00 0.51 7 201.27
04/03/21 24.50 7.20 0.00 0.37 6 199.96
03/03/21 22.10 12.20 0.00 0.41 5 182.17
02/03/21 19.80 13.30 0.00 0.43 4 168.22
01/03/21 23.20 11.20 0.00 0.54 3 150.39
28/02/21 28.80 6.10 0.00 0.32 2 144.29
27/02/21 28.10 6.10 0.00 0.33 1 147.76
26/02/21 20.80 5.00 0.10 0.55 0 150.91
25/02/21 20.80 11.20 1.00 0.54 0 174.15
24/02/21 21.50 6.10 0.00 0.42 17 220.47
23/02/21 19.50 9.70 0.00 0.45 16 285.33
22/02/21 21.90 14.80 0.00 0.52 15 340.06
21/02/21 25.40 9.70 0.00 0.44 14 352.48
20/02/21 30.70 7.20 0.00 0.46 13 355.69
19/02/21 36.10 6.10 0.00 0.25 12 340.92
18/02/21 35.50 9.70 0.00 0.25 11 298.78
17/02/21 36.30 8.60 0.00 0.23 10 236.58
16/02/21 35.00 6.10 0.00 0.26 9 218.74
15/02/21 28.60 7.20 0.00 0.30 8 198.55
14/02/21 23.60 7.20 0.00 0.51 7 181.94
13/02/21 21.70 7.20 0.00 0.64 6 179.20
12/02/21 21.10 9.70 0.00 0.53 5 172.36
11/02/21 34.00 8.60 0.00 0.31 4 148.60
10/02/21 34.30 3.60 0.00 0.19 3 84.59
09/02/21 28.00 5.00 0.00 0.37 2 52.10
08/02/21 21.80 7.20 0.00 0.50 1 67.90
07/02/21 18.10 6.10 0.20 0.70 0 80.83
06/02/21 16.60 9.70 3.70 0.94 0 105.47
05/02/21 16.40 15.80 18.50 0.67 0 147.36
04/02/21 20.60 8.60 13.80 0.54 0 171.92
03/02/21 27.60 8.60 0.00 0.36 8 215.32
02/02/21 22.40 11.20 0.00 0.46 7 214.55
01/02/21 24.60 9.70 0.00 0.48 6 204.34
31/01/21 27.20 8.60 0.00 0.41 5 183.85
30/01/21 24.40 8.60 0.00 0.53 4 134.69
29/01/21 26.50 11.20 0.00 0.46 3 213.48
28/01/21 30.90 6.10 0.00 0.25 2 257.35
27/01/21 22.90 8.60 0.00 0.51 1 278.40
26/01/21 20.80 7.20 0.10 0.67 0 349.56
25/01/21 28.40 6.10 21.80 0.50 0 397.35
24/01/21 41.90 7.20 0.20 0.11 0 424.40
23/01/21 38.40 7.20 0.00 0.11 6 350.37
22/01/21 33.40 7.20 0.00 0.15 5 274.97
21/01/21 35.00 8.60 0.00 0.13 4 237.11
20/01/21 31.20 7.20 0.00 0.21 3 196.80
19/01/21 24.40 9.70 0.00 0.41 2 182.73
18/01/21 22.60 9.70 0.00 0.54 1 214.48
17/01/21 20.20 7.20 0.20 0.64 0 221.91
16/01/21 21.30 9.70 0.00 0.47 3 335.42
15/01/21 19.90 15.80 0.00 0.39 2 403.23
14/01/21 22.80 12.20 0.00 0.43 1 427.19
13/01/21 28.90 11.20 0.60 0.24 0 446.78
12/01/21 25.40 8.60 0.00 0.41 11 421.89
11/01/21 37.30 12.20 0.00 0.21 10 418.14
10/01/21 37.20 8.60 0.00 0.13 9 321.54
09/01/21 35.90 7.20 0.00 0.18 8 241.08
08/01/21 32.10 8.60 0.00 0.28 7 195.29
07/01/21 24.00 9.70 0.00 0.45 6 157.54
06/01/21 20.90 12.20 0.00 0.50 5 170.97
05/01/21 20.60 12.20 0.00 0.54 4 179.57
04/01/21 18.10 11.20 0.00 0.67 3 183.29
03/01/21 25.20 7.20 0.00 0.46 2 192.31
02/01/21 29.60 5.00 0.00 0.46 1 197.15
01/01/21 33.10 6.10 0.60 0.25 0 236.40
31/12/20 26.00 9.70 0.00 0.39 10 283.46
30/12/20 26.40 8.60 0.00 0.46 9 283.50
29/12/20 24.90 7.20 0.00 0.44 8 277.25
28/12/20 19.40 12.20 0.00 0.44 7 289.41
27/12/20 30.00 11.20 0.00 0.34 6 281.95
26/12/20 33.10 9.70 0.00 0.15 5 218.36
25/12/20 28.00 7.20 0.00 0.25 4 175.07
24/12/20 23.00 9.70 0.00 0.51 3 162.84
23/12/20 24.00 12.20 0.00 0.47 2 159.83
22/12/20 20.80 9.70 0.00 0.49 1 137.95
21/12/20 17.30 12.20 2.00 0.66 0 146.25
20/12/20 28.10 7.20 1.00 0.25 0 166.16
19/12/20 23.60 8.60 0.00 0.41 4 186.21
18/12/20 21.50 8.60 0.00 0.44 3 182.31
17/12/20 18.50 11.20 0.00 0.63 2 164.61
16/12/20 27.90 7.20 0.00 0.53 1 198.62
15/12/20 26.60 8.60 0.20 0.53 0 238.65
14/12/20 35.40 7.20 0.00 0.31 8 248.52
13/12/20 29.40 5.00 0.00 0.35 7 245.00
12/12/20 23.20 2.50 0.00 0.44 6 235.75
12/12/20 32.00 7.20 0.00 0.23 5 252.35
11/12/20 25.00 13.30 0.00 0.21 4 198.74
10/12/20 21.50 12.20 0.00 0.52 3 131.33
09/12/20 25.90 12.20 0.00 0.33 2 166.38
08/12/20 21.10 7.20 0.00 0.49 1 150.56
07/12/20 15.70 18.40 0.20 0.61 0 155.12
06/12/20 18.10 11.20 3.30 0.61 0 170.70
05/12/20 18.90 14.80 2.80 0.66 0 140.54
04/12/20 30.30 9.70 0.50 0.21 0 149.10
03/12/20 27.10 7.20 0.00 0.23 2 85.09
02/12/20 21.00 8.60 0.00 0.44 1 128.52
01/12/20 19.90 13.30 0.10 0.48 0 198.35
30/11/20 30.10 8.60 7.50 0.29 0 238.50
29/11/20 21.50 7.20 0.10 0.47 0 257.17
28/11/20 30.80 14.80 1.90 0.38 0 293.54
27/11/20 38.70 7.20 0.00 0.15 5 242.65
26/11/20 33.90 8.60 0.00 0.31 4 202.75
25/11/20 30.80 8.60 0.00 0.28 3 157.59
24/11/20 25.80 9.70 0.00 0.44 2 189.30
23/11/20 20.40 8.60 0.00 0.63 1 223.59
22/11/20 27.90 8.60 6.20 0.52 0 250.70
21/11/20 34.20 6.10 0.40 0.31 0 272.06
20/11/20 25.00 6.10 0.10 0.52 0 328.93
19/11/20 33.80 9.70 0.00 0.14 4 352.06
18/11/20 31.80 7.20 0.00 0.17 3 274.57
17/11/20 25.60 7.20 0.00 0.30 2 217.50
16/11/20 19.90 12.20 0.00 0.44 1 183.49
15/11/20 33.10 13.30 0.80 0.24 0 150.81
14/11/20 30.70 6.10 0.00 0.30 2 92.31
13/11/20 17.20 8.60 0.00 0.67 1 97.83
12/11/20 14.20 9.70 2.50 0.90 0 106.13
11/11/20 23.60 13.30 2.10 0.33 0 153.78
10/11/20 37.10 11.20 3.70 0.26 0 189.51
09/11/20 31.00 6.10 0.00 0.24 3 153.88
08/11/20 24.10 9.70 0.00 0.24 2 199.38
07/11/20 18.40 9.70 0.00 0.54 1 218.54
06/11/20 18.50 11.20 0.20 0.51 0 224.03
05/11/20 13.70 8.60 0.00 0.65 1 211.59
04/11/20 16.20 11.20 0.10 0.67 0 201.17
03/11/20 33.30 11.20 0.50 0.23 0 187.59
02/11/20 29.70 11.20 0.00 0.31 1 122.59
01/11/20 25.20 7.20 0.10 0.45 0 57.28
31/10/20 15.50 9.70 0.00 0.71 1 51.88
30/10/20 13.40 15.80 1.50 0.84 0 64.49
29/10/20 19.60 12.20 10.80 0.58 0 82.50
28/10/20 22.90 7.20 0.10 0.45 0 84.36
27/10/20 19.60 8.60 1.20 0.56 0 70.90
26/10/20 16.90 11.20 0.80 0.56 0 77.02
25/10/20 13.10 13.30 0.00 0.51 1 81.60
24/10/20 15.10 13.30 0.90 0.69 0 81.59
23/10/20 17.90 11.20 0.00 0.79 1 78.69
22/10/20 22.90 9.70 1.90 0.59 0 93.89
21/10/20 24.50 5.00 0.00 0.52 5 87.81
20/10/20 24.00 6.10 0.00 0.38 4 117.57
19/10/20 19.80 8.60 0.00 0.48 3 141.08
18/10/20 16.40 6.10 0.00 0.55 2 128.81
17/10/20 15.70 11.20 0.00 0.63 1 125.37
16/10/20 17.10 7.20 1.70 0.94 0 102.68
15/10/20 25.60 11.20 0.40 0.38 0 101.84
14/10/20 31.70 7.20 0.00 0.30 3 69.37
13/10/20 25.60 2.50 0.00 0.43 2 11.33
08/10/20 12.50 11.20 0.00 0.76 1 48.83
07/10/20 9.20 12.20 20.70 0.97 0 117.94
06/10/20 14.80 9.70 1.90 0.58 0 152.82
05/10/20 15.10 8.60 0.20 0.66 0 127.67
04/10/20 25.80 14.80 13.80 0.51 0 162.00
03/10/20 28.90 7.20 0.00 0.30 3 160.40
02/10/20 30.50 12.20 0.00 0.27 2 127.94
01/10/20 25.90 7.20 0.00 0.41 1 62.21
30/09/20 14.40 11.20 6.30 0.70 0 47.87
29/09/20 17.20 8.60 13.80 0.48 0 50.04
28/09/20 15.20 7.20 0.00 0.54 1 45.20
27/09/20 13.20 8.60 0.10 0.67 0 32.78
27/09/20 16.10 8.60 0.00 0.59 2 26.19
26/09/20 13.40 9.70 0.00 0.62 1 38.53
25/09/20 10.10 12.20 4.60 0.72 0 30.43
24/09/20 10.70 12.20 19.10 0.81 0 45.93
23/09/20 13.00 12.20 1.80 0.75 0 82.88
22/09/20 11.40 14.80 15.90 0.86 0 80.18
21/09/20 16.60 12.20 0.00 0.43 1 112.06
20/09/20 23.90 11.20 1.90 0.46 0 114.22
19/09/20 22.60 7.20 0.00 0.55 2 108.56
18/09/20 25.20 11.20 0.00 0.52 1 107.08
17/09/20 19.10 13.30 1.30 0.65 0 64.72
16/09/20 25.70 7.20 0.00 0.31 3 94.37
15/09/20 21.10 5.00 0.00 0.54 2 85.71
14/09/20 18.70 6.10 0.00 0.61 1 92.86
13/09/20 17.90 8.60 0.10 0.51 0 113.26
12/09/20 23.40 9.70 6.30 0.52 0 169.19
11/09/20 27.10 8.60 0.00 0.40 8 212.53
10/09/20 24.50 6.10 0.00 0.33 7 186.57
09/09/20 16.80 9.70 0.00 0.47 6 168.00
08/09/20 15.40 13.30 0.00 0.69 5 159.32
07/09/20 25.90 12.20 0.00 0.21 4 143.92
06/09/20 22.20 11.20 0.00 0.26 3 107.65
05/09/20 18.90 6.10 0.00 0.55 2 71.59
04/09/20 14.20 8.60 0.00 0.73 1 58.63
03/09/20 14.20 11.20 0.10 0.67 0 88.18
02/09/20 18.20 11.20 1.30 0.51 0 104.51
01/09/20 17.10 13.30 0.00 0.44 1 117.61
31/08/20 12.90 7.20 0.10 0.57 0 102.59
30/08/20 11.20 11.20 1.10 0.85 0 104.41
29/08/20 23.00 9.70 0.40 0.30 0 105.46
28/08/20 20.60 6.10 0.00 0.43 5 82.79
27/08/20 17.40 11.20 0.00 0.47 4 64.96
26/08/20 18.70 6.10 0.00 0.43 3 40.42
25/08/20 15.20 5.00 0.00 0.49 2 24.46
24/08/20 10.90 3.60 0.00 0.65 1 14.67
23/08/20 12.50 9.70 0.10 0.63 0 10.38
22/08/20 9.80 18.40 2.20 0.73 0 6.01
21/08/20 9.60 15.80 5.80 0.69 0 12.12
20/08/20 10.20 13.30 20.40 0.84 0 9.99
19/08/20 11.80 11.20 2.90 0.73 0 12.40
18/08/20 10.20 14.80 20.00 0.76 0 11.17
17/08/20 15.50 12.20 1.20 0.56 0 17.66
16/08/20 14.80 7.20 0.00 0.66 1 9.22
15/08/20 13.00 8.60 1.20 0.75 0 14.05
14/08/20 12.50 7.20 7.30 0.84 0 17.77
13/08/20 11.30 9.70 4.20 0.91 0 17.82
12/08/20 11.50 9.70 1.20 0.93 0 17.58
11/08/20 12.00 7.20 8.20 0.66 0 29.08
10/08/20 15.80 7.20 0.00 0.58 1 48.74
09/08/20 11.50 8.60 0.10 0.75 0 52.18
08/08/20 7.90 13.30 1.60 0.97 0 56.63
07/08/20 6.10 18.40 12.30 0.87 0 74.13
06/08/20 8.30 12.20 0.00 0.62 10 103.78
05/08/20 11.00 14.80 0.00 0.46 9 103.97
04/08/20 11.30 11.20 0.00 0.49 8 90.76
03/08/20 16.30 7.20 0.00 0.63 7 84.61
02/08/20 19.10 6.10 0.00 0.39 6 80.65
01/08/20 18.20 8.60 0.00 0.41 5 74.92
31/07/20 17.00 6.10 0.00 0.52 4 70.07
30/07/20 15.80 6.10 0.00 0.60 3 74.68
29/07/20 15.90 7.20 0.00 0.61 2 79.93
28/07/20 14.00 3.60 0.00 0.40 1 79.62
27/07/20 13.50 9.70 0.50 0.61 0 75.46
26/07/20 17.40 9.70 0.30 0.55 0 67.27
25/07/20 18.60 7.20 0.00 0.45 6 62.37
24/07/20 16.10 7.20 0.00 0.43 5 52.48
23/07/20 14.70 7.20 0.00 0.55 4 36.49
22/07/20 9.40 7.20 0.00 0.78 3 40.19
21/07/20 9.60 6.10 0.00 0.76 2 43.14
20/07/20 13.50 6.10 0.00 0.66 1 46.01
19/07/20 11.80 11.20 0.10 0.74 0 45.24
18/07/20 12.40 13.30 1.90 0.53 0 53.54
17/07/20 17.20 7.20 0.00 0.45 3 52.95
16/07/20 16.90 5.00 0.00 0.60 2 36.45
15/07/20 14.40 5.00 0.00 0.55 1 39.47
14/07/20 15.00 5.00 0.10 0.61 0 41.47
13/07/20 15.10 5.00 0.00 0.57 1 43.04
12/07/20 11.60 8.60 0.30 0.77 0 38.88
11/07/20 11.50 11.20 1.40 0.71 0 46.37
10/07/20 15.00 8.60 1.00 0.60 0 49.00
09/07/20 13.70 7.20 0.00 0.54 4 46.00
08/07/20 13.20 6.10 0.00 0.61 3 34.64
07/07/20 9.30 7.20 0.00 0.75 2 26.43
06/07/20 10.00 13.30 0.00 0.74 1 21.22
05/07/20 13.80 7.20 0.10 0.69 0 30.06
04/07/20 12.30 9.70 0.00 0.83 1 33.25
03/07/20 10.40 13.30 1.40 0.82 0 38.96
02/07/20 11.40 11.20 9.90 0.74 0 44.35
01/07/20 17.30 11.20 6.10 0.44 0 52.05
30/06/20 13.20 11.20 0.00 0.46 4 47.88
29/06/20 12.60 7.20 0.00 0.56 3 32.73
28/06/20 14.80 5.00 0.00 0.50 2 23.45
27/06/20 15.10 3.60 0.00 0.53 1 14.05
26/06/20 13.40 2.50 0.10 0.73 0 7.25
25/06/20 8.40 0.00 0.90 0.97 0 5.18
25/06/20 12.90 6.10 0.90 0.77 0 5.12
24/06/20 9.50 5.00 0.20 0.92 0 0.95
23/06/20 11.10 7.20 2.40 0.94 0 24.48
22/06/20 10.40 17.30 5.70 0.82 0 32.06
21/06/20 11.60 12.20 2.70 0.79 0 32.94
20/06/20 10.20 14.80 26.20 0.95 0 30.06
19/06/20 13.00 8.60 7.70 0.53 0 33.47
18/06/20 16.50 13.30 0.00 0.52 2 31.44
17/06/20 13.00 5.00 0.00 0.63 1 6.53
16/06/20 12.40 7.20 4.30 0.97 0 7.77
15/06/20 12.20 11.20 6.80 0.97 0 13.25
14/06/20 11.20 13.30 18.00 0.97 0 21.27
13/06/20 12.10 12.20 18.00 0.62 0 33.21
12/06/20 17.20 7.20 1.20 0.46 0 44.96
11/06/20 16.30 3.60 0.00 0.44 9 55.80
10/06/20 16.10 2.50 0.00 0.40 8 55.43
09/06/20 13.70 5.00 0.00 0.49 7 54.65
08/06/20 11.40 7.20 0.00 0.59 6 52.62
07/06/20 10.30 9.70 0.00 0.65 5 43.68
06/06/20 12.10 8.60 0.00 0.61 4 34.18
05/06/20 15.50 5.00 0.00 0.54 3 23.73
04/06/20 15.50 3.60 0.00 0.55 2 14.65
03/06/20 11.20 9.70 0.00 0.73 1 31.93
02/06/20 11.80 9.70 3.80 0.97 0 32.94
01/06/20 10.50 12.20 9.20 0.81 0 34.50
31/05/20 10.60 13.30 27.10 0.86 0 49.46
30/05/20 18.70 11.20 3.60 0.42 0 70.81
29/05/20 18.30 11.20 0.00 0.49 1 62.92
28/05/20 15.70 8.60 0.20 0.72 0 37.95
27/05/20 11.80 7.20 1.20 0.83 0 31.07
26/05/20 16.70 8.60 0.00 0.53 2 42.07
25/05/20 15.80 6.10 0.00 0.59 1 15.05
24/05/20 10.00 12.20 0.50 0.83 0 15.78
23/05/20 12.90 12.20 1.20 0.97 0 33.27
22/05/20 11.70 11.20 2.50 0.95 0 50.72
21/05/20 12.50 11.20 0.40 0.67 0 63.52
20/05/20 11.40 15.80 12.00 0.86 0 66.91
19/05/20 20.90 8.60 10.70 0.38 0 78.73
18/05/20 22.00 7.20 0.00 0.42 5 79.17
17/05/20 22.60 5.00 0.00 0.37 4 56.14
16/05/20 19.50 5.00 0.00 0.40 3 54.87
15/05/20 18.20 5.00 0.00 0.42 2 48.05
14/05/20 11.20 5.00 0.00 0.62 1 34.95
13/05/20 13.40 7.20 0.60 0.81 0 28.91
12/05/20 18.10 12.20 4.30 0.52 0 36.84
11/05/20 18.30 8.60 0.00 0.53 2 58.93
10/05/20 16.00 6.10 0.00 0.65 1 55.55
09/05/20 13.30 11.20 2.20 0.66 0 62.70
08/05/20 13.80 14.80 28.40 0.79 0 64.28
07/05/20 19.80 15.80 3.20 0.55 0 77.40
06/05/20 19.60 9.70 0.00 0.27 4 65.02
05/05/20 21.50 5.00 0.00 0.43 3 31.80
04/05/20 19.00 5.00 0.00 0.54 2 16.21
03/05/20 12.80 5.00 0.00 0.72 1 5.13
02/05/20 13.20 13.30 1.40 0.86 0 21.85
01/05/20 12.60 15.80 14.20 0.86 0 52.75
30/04/20 14.00 14.80 11.00 0.67 0 24.23
29/04/20 16.90 11.20 5.80 0.69 0 37.72
28/04/20 19.40 9.70 15.30 0.64 0 24.26
27/04/20 22.90 6.10 0.00 0.44 1 43.37
26/04/20 22.00 13.30 0.10 0.55 0 79.61
25/04/20 25.40 13.30 24.90 0.47 0 77.96
24/04/20 22.10 6.10 0.00 0.56 1 112.12
23/04/20 18.70 8.60 10.00 0.54 0 102.55
22/04/20 22.80 8.60 0.00 0.51 1 110.71
21/04/20 22.10 9.70 0.10 0.52 0 102.15
20/04/20 19.20 7.20 0.00 0.54 1 128.44
19/04/20 20.00 13.30 0.10 0.45 0 162.52

 

CumulusUtils Version 3.0.1 - generated at 15/04/2021 09:01 - © Hans Rottier
Science background here. - NOTE: Behavioural testing still under way!
Prediction courtesy of https://www.yourweather.co.uk/